Time;durP1;ratioP1;P1;durP2;ratioP2;P2;SDS_P1;SDS_P2;PMS_P1;PMS_P2;Temp;Humidity;BMP_temperature;BMP_pressure;BME280_temperature;BME280_humidity;BME280_pressure;Samples;Min_cycle;Max_cycle;Signal;HPM_P1;HPM_P2
2021/03/19 00:02:31;;;;;;;19.67;17.57;;;3.00;99.90;;;;;;4989492;28;20549;-91
2021/03/19 00:05:04;;;;;;;18.63;16.63;;;2.90;99.90;;;;;;4990203;28;20493;-90
2021/03/19 00:07:50;;;;;;;21.80;17.83;;;2.90;99.90;;;;;;5001715;28;20473;-90
2021/03/19 00:10:21;;;;;;;21.40;17.63;;;2.90;99.90;;;;;;4981708;28;20484;-90
2021/03/19 00:12:50;;;;;;;20.63;17.83;;;2.80;99.90;;;;;;4977466;28;20472;-91
2021/03/19 00:15:34;;;;;;;22.27;19.17;;;2.90;99.90;;;;;;4989025;28;20469;-91
2021/03/19 00:18:12;;;;;;;23.20;19.50;;;2.90;99.90;;;;;;4997905;28;20473;-91
2021/03/19 00:21:22;;;;;;;24.53;19.90;;;2.80;99.90;;;;;;5006802;28;20465;-91
2021/03/19 00:23:58;;;;;;;24.00;19.67;;;2.90;99.90;;;;;;4993671;28;20519;-91
2021/03/19 00:26:30;;;;;;;27.20;21.80;;;2.80;99.90;;;;;;4996880;28;20906;-91
2021/03/19 00:29:11;;;;;;;23.73;21.20;;;2.90;99.90;;;;;;4996805;28;20556;-91
2021/03/19 00:31:40;;;;;;;26.33;20.77;;;2.80;99.90;;;;;;4998457;28;20832;-91
2021/03/19 00:34:17;;;;;;;24.37;19.07;;;2.80;99.90;;;;;;4988333;28;20462;-90
2021/03/19 00:36:58;;;;;;;26.03;20.17;;;2.70;99.90;;;;;;5000607;28;20480;-91
2021/03/19 00:39:25;;;;;;;26.23;19.70;;;2.70;99.90;;;;;;4982631;28;20546;-90
2021/03/19 00:41:59;;;;;;;23.50;19.27;;;2.60;99.90;;;;;;4983770;28;20469;-90
2021/03/19 00:44:30;;;;;;;25.10;20.63;;;2.60;99.90;;;;;;5002460;28;20949;-90
2021/03/19 00:46:59;;;;;;;28.13;21.73;;;2.50;99.90;;;;;;5004201;28;20475;-91
2021/03/19 00:49:31;;;;;;;26.77;20.63;;;2.50;99.90;;;;;;4998149;28;20461;-90
2021/03/19 00:52:16;;;;;;;26.43;20.70;;;2.30;99.90;;;;;;4998702;28;20503;-90
2021/03/19 00:54:52;;;;;;;25.53;19.63;;;2.30;99.90;;;;;;5001359;28;20465;-90
2021/03/19 00:57:32;;;;;;;25.93;20.30;;;2.30;99.90;;;;;;4988366;28;20519;-91
2021/03/19 01:00:14;;;;;;;23.63;20.13;;;2.20;99.90;;;;;;5000062;28;20492;-90
2021/03/19 01:02:50;;;;;;;27.37;18.87;;;2.20;99.90;;;;;;4988535;28;20474;-90
2021/03/19 01:05:34;;;;;;;27.20;20.77;;;2.20;99.90;;;;;;4986576;28;20517;-91
2021/03/19 01:08:14;;;;;;;28.13;21.90;;;2.20;99.90;;;;;;5010480;28;20839;-91
2021/03/19 01:10:48;;;;;;;26.23;20.37;;;2.30;99.90;;;;;;5000988;28;20508;-90
2021/03/19 01:16:06;;;;;;;31.77;21.13;;;2.40;99.90;;;;;;5001303;28;20566;-91
2021/03/19 01:18:39;;;;;;;32.20;23.50;;;2.40;99.90;;;;;;4998581;28;20952;-90
2021/03/19 01:24:09;;;;;;;29.97;22.20;;;2.40;99.90;;;;;;4995031;28;20436;-91
2021/03/19 01:29:31;;;;;;;26.60;20.00;;;2.40;99.90;;;;;;5000097;28;20910;-90
2021/03/19 01:35:00;;;;;;;25.00;20.90;;;2.40;99.90;;;;;;4995814;28;20535;-90
2021/03/19 01:37:34;;;;;;;29.23;19.03;;;2.40;99.90;;;;;;5000574;28;20465;-90
2021/03/19 01:40:22;;;;;;;23.00;19.90;;;2.40;99.90;;;;;;5001047;28;20553;-91
2021/03/19 01:43:04;;;;;;;29.73;22.43;;;2.40;99.90;;;;;;4995029;28;20511;-91
2021/03/19 01:46:12;;;;;;;27.83;20.50;;;2.30;99.90;;;;;;4997427;28;20464;-91
2021/03/19 01:49:17;;;;;;;25.37;19.20;;;2.30;99.90;;;;;;4996331;28;20533;-91
2021/03/19 01:52:30;;;;;;;24.43;18.13;;;2.20;99.90;;;;;;5001364;28;20491;-90
2021/03/19 01:55:53;;;;;;;25.00;21.00;;;2.10;99.90;;;;;;4997945;28;20468;-90
2021/03/19 01:58:58;;;;;;;24.97;19.30;;;2.10;99.90;;;;;;4993421;28;20448;-91
2021/03/19 02:02:02;;;;;;;24.97;19.27;;;2.00;99.90;;;;;;4998979;28;20492;-91
2021/03/19 02:08:25;;;;;;;25.93;20.60;;;1.80;99.90;;;;;;4997899;28;20472;-90
2021/03/19 02:14:52;;;;;;;30.70;21.30;;;1.80;99.90;;;;;;4985152;28;20447;-91
2021/03/19 02:21:16;;;;;;;28.60;22.40;;;1.80;99.90;;;;;;4979401;28;20446;-91
2021/03/19 02:27:48;;;;;;;30.13;22.10;;;1.90;99.90;;;;;;4944006;28;20477;-91
2021/03/19 02:31:04;;;;;;;31.10;21.47;;;2.00;99.90;;;;;;4969517;28;20929;-90
2021/03/19 02:33:41;;;;;;;32.20;22.17;;;1.90;99.90;;;;;;4997068;28;20471;-90
2021/03/19 02:36:24;;;;;;;28.80;22.43;;;2.00;99.90;;;;;;4993469;28;20465;-91
2021/03/19 02:39:09;;;;;;;31.57;23.37;;;2.00;99.90;;;;;;5004945;28;20501;-91
2021/03/19 02:47:08;;;;;;;36.33;24.57;;;2.00;99.90;;;;;;4995189;28;20914;-90
2021/03/19 02:52:34;;;;;;;32.30;23.23;;;2.10;99.90;;;;;;5005729;28;20556;-91
2021/03/19 02:57:59;;;;;;;28.80;21.90;;;2.00;99.90;;;;;;4998635;28;20463;-90
2021/03/19 03:03:21;;;;;;;31.90;23.10;;;1.90;99.90;;;;;;4991925;28;20773;-91
2021/03/19 03:06:09;;;;;;;31.73;22.80;;;1.90;99.90;;;;;;4992639;28;20812;-91
2021/03/19 03:08:54;;;;;;;29.63;21.70;;;1.90;99.90;;;;;;4997279;28;20453;-91
2021/03/19 03:11:27;;;;;;;30.63;22.10;;;2.00;99.90;;;;;;4999606;28;20741;-90
2021/03/19 03:16:55;;;;;;;31.20;22.27;;;2.00;99.90;;;;;;4997420;28;20457;-91
2021/03/19 03:19:35;;;;;;;32.90;23.57;;;2.00;99.90;;;;;;5001048;28;20476;-91
2021/03/19 03:22:14;;;;;;;32.80;24.07;;;2.00;99.90;;;;;;4997627;28;20439;-91
2021/03/19 03:25:09;;;;;;;31.10;22.23;;;2.10;99.90;;;;;;5003316;28;20469;-91
2021/03/19 03:28:19;;;;;;;32.40;22.30;;;2.10;99.90;;;;;;4997929;28;20534;-91
2021/03/19 03:41:58;;;;;;;34.30;24.70;;;2.20;99.90;;;;;;5008107;28;20451;-91
2021/03/19 03:44:25;;;;;;;32.87;24.67;;;2.10;99.90;;;;;;5018444;28;20467;-91
2021/03/19 03:46:52;;;;;;;32.50;26.67;;;2.10;99.90;;;;;;5001161;28;20489;-91
2021/03/19 03:49:19;;;;;;;30.73;25.07;;;2.10;99.90;;;;;;4998440;28;20461;-91
2021/03/19 03:51:47;;;;;;;33.73;25.80;;;2.10;99.90;;;;;;4997707;28;20467;-91
2021/03/19 03:54:14;;;;;;;34.30;26.03;;;2.20;99.90;;;;;;4998001;28;20469;-91
2021/03/19 03:56:42;;;;;;;34.20;27.10;;;2.10;99.90;;;;;;5002896;28;20480;-91
2021/03/19 03:59:09;;;;;;;44.47;30.40;;;2.10;99.90;;;;;;4998761;28;20462;-90
2021/03/19 04:01:39;;;;;;;41.67;32.00;;;2.00;99.90;;;;;;4998644;28;20567;-91
2021/03/19 04:04:06;;;;;;;43.10;31.50;;;1.90;99.90;;;;;;4988033;28;20501;-91
2021/03/19 04:06:33;;;;;;;40.33;30.73;;;1.90;99.90;;;;;;4997925;28;20469;-91
2021/03/19 04:09:00;;;;;;;34.00;28.17;;;1.80;99.90;;;;;;5007992;28;20479;-91
2021/03/19 04:11:27;;;;;;;35.50;26.00;;;1.80;99.90;;;;;;5005151;28;20464;-91
2021/03/19 04:13:54;;;;;;;32.83;24.53;;;1.80;99.90;;;;;;5005117;28;20461;-91
2021/03/19 04:16:21;;;;;;;32.70;26.50;;;1.80;99.90;;;;;;5002093;28;20559;-91
2021/03/19 04:18:48;;;;;;;38.90;25.77;;;1.80;99.90;;;;;;5008385;28;20502;-91
2021/03/19 04:21:15;;;;;;;30.43;25.63;;;1.90;99.90;;;;;;5001818;28;20460;-91
2021/03/19 04:23:46;;;;;;;35.33;25.97;;;1.90;99.90;;;;;;5003680;28;20469;-91
2021/03/19 04:26:24;;;;;;;32.43;23.80;;;1.90;99.90;;;;;;5001854;28;20480;-90
2021/03/19 04:28:54;;;;;;;31.97;24.00;;;1.80;99.90;;;;;;4986608;28;20465;-91
2021/03/19 04:31:21;;;;;;;36.70;23.60;;;1.70;99.90;;;;;;5001919;28;20469;-91
2021/03/19 04:33:51;;;;;;;33.53;23.23;;;1.70;99.90;;;;;;5001489;28;20914;-91
2021/03/19 04:36:27;;;;;;;31.33;23.17;;;1.60;99.90;;;;;;5007467;28;20464;-91
2021/03/19 04:38:57;;;;;;;31.90;23.37;;;1.60;99.90;;;;;;5009529;28;20479;-91
2021/03/19 04:41:24;;;;;;;31.30;23.90;;;1.60;99.90;;;;;;5000876;28;20469;-91
2021/03/19 04:43:52;;;;;;;32.77;25.00;;;1.60;99.90;;;;;;5001894;28;20450;-91
2021/03/19 04:46:19;;;;;;;32.63;23.87;;;1.60;99.90;;;;;;4995692;28;20453;-91
2021/03/19 04:48:45;;;;;;;32.50;22.70;;;1.60;99.90;;;;;;5001657;28;20459;-91
2021/03/19 04:51:15;;;;;;;29.80;22.77;;;1.60;99.90;;;;;;4994972;28;20472;-91
2021/03/19 04:53:43;;;;;;;31.70;24.70;;;1.60;99.90;;;;;;5000510;28;20575;-91
2021/03/19 04:56:11;;;;;;;33.90;24.03;;;1.60;99.90;;;;;;5008160;28;20477;-91
2021/03/19 04:58:37;;;;;;;30.10;21.53;;;1.50;99.90;;;;;;5000976;28;20485;-91
2021/03/19 05:01:05;;;;;;;31.77;23.20;;;1.60;99.90;;;;;;5004579;28;20741;-91
2021/03/19 05:03:33;;;;;;;34.30;24.27;;;1.50;99.90;;;;;;4987994;28;20495;-91
2021/03/19 05:06:00;;;;;;;36.90;23.87;;;1.40;99.90;;;;;;5001187;28;20485;-91
2021/03/19 05:08:29;;;;;;;35.33;23.80;;;1.40;99.90;;;;;;5005764;28;20471;-91
2021/03/19 05:11:02;;;;;;;32.07;23.97;;;1.30;99.90;;;;;;5001356;28;20512;-91
2021/03/19 05:13:33;;;;;;;32.97;23.20;;;1.30;99.90;;;;;;4984077;28;20488;-91
2021/03/19 06:11:29;;;;;;;30.37;22.60;;;1.20;99.90;;;;;;4998433;28;20522;-91
2021/03/19 06:14:36;;;;;;;30.90;22.70;;;1.20;99.90;;;;;;4984335;28;20457;-91
2021/03/19 06:30:24;;;;;;;24.93;18.80;;;1.00;99.90;;;;;;4996648;28;20484;-91
